sensor_id;sensor_type;location;lat;lon;timestamp;P1;durP1;ratioP1;P2;durP2;ratioP2
76208;SDS011;64990;51.698;-0.292;2023-05-10T00:00:16;18.73;;;4.82;;
76208;SDS011;64990;51.698;-0.292;2023-05-10T00:02:42;13.85;;;3.70;;
76208;SDS011;64990;51.698;-0.292;2023-05-10T00:05:08;23.65;;;5.18;;
76208;SDS011;64990;51.698;-0.292;2023-05-10T00:07:34;12.57;;;3.50;;
76208;SDS011;64990;51.698;-0.292;2023-05-10T00:10:00;10.77;;;3.90;;
76208;SDS011;64990;51.698;-0.292;2023-05-10T00:12:26;17.48;;;4.25;;
76208;SDS011;64990;51.698;-0.292;2023-05-10T00:14:52;17.00;;;4.93;;
76208;SDS011;64990;51.698;-0.292;2023-05-10T00:17:18;10.20;;;3.92;;
76208;SDS011;64990;51.698;-0.292;2023-05-10T00:19:45;13.80;;;4.00;;
76208;SDS011;64990;51.698;-0.292;2023-05-10T00:22:11;13.93;;;4.32;;
76208;SDS011;64990;51.698;-0.292;2023-05-10T00:24:39;13.18;;;3.90;;
76208;SDS011;64990;51.698;-0.292;2023-05-10T00:27:05;15.90;;;4.03;;
76208;SDS011;64990;51.698;-0.292;2023-05-10T00:29:31;9.43;;;4.43;;
76208;SDS011;64990;51.698;-0.292;2023-05-10T00:31:58;38.30;;;5.22;;
76208;SDS011;64990;51.698;-0.292;2023-05-10T00:34:24;32.33;;;5.50;;
76208;SDS011;64990;51.698;-0.292;2023-05-10T00:36:50;15.57;;;4.70;;
76208;SDS011;64990;51.698;-0.292;2023-05-10T00:39:16;13.15;;;4.65;;
76208;SDS011;64990;51.698;-0.292;2023-05-10T00:41:42;11.88;;;5.10;;
76208;SDS011;64990;51.698;-0.292;2023-05-10T00:44:08;27.40;;;5.18;;
76208;SDS011;64990;51.698;-0.292;2023-05-10T00:46:34;8.27;;;3.63;;
76208;SDS011;64990;51.698;-0.292;2023-05-10T00:49:01;13.15;;;5.32;;
76208;SDS011;64990;51.698;-0.292;2023-05-10T00:51:27;11.02;;;5.15;;
76208;SDS011;64990;51.698;-0.292;2023-05-10T00:53:53;14.20;;;5.25;;
76208;SDS011;64990;51.698;-0.292;2023-05-10T00:56:21;12.73;;;3.83;;
76208;SDS011;64990;51.698;-0.292;2023-05-10T00:58:48;18.90;;;4.15;;
76208;SDS011;64990;51.698;-0.292;2023-05-10T01:01:14;7.60;;;4.03;;
76208;SDS011;64990;51.698;-0.292;2023-05-10T01:03:40;14.70;;;4.60;;
76208;SDS011;64990;51.698;-0.292;2023-05-10T01:06:07;13.27;;;6.10;;
76208;SDS011;64990;51.698;-0.292;2023-05-10T01:08:34;12.02;;;3.85;;
76208;SDS011;64990;51.698;-0.292;2023-05-10T01:11:01;12.32;;;4.57;;
76208;SDS011;64990;51.698;-0.292;2023-05-10T01:15:53;26.65;;;5.53;;
76208;SDS011;64990;51.698;-0.292;2023-05-10T01:18:20;23.48;;;5.50;;
76208;SDS011;64990;51.698;-0.292;2023-05-10T01:20:47;33.88;;;5.72;;
76208;SDS011;64990;51.698;-0.292;2023-05-10T01:35:55;10.68;;;5.57;;
76208;SDS011;64990;51.698;-0.292;2023-05-10T01:41:23;16.55;;;6.10;;
76208;SDS011;64990;51.698;-0.292;2023-05-10T01:44:02;34.85;;;8.52;;
76208;SDS011;64990;51.698;-0.292;2023-05-10T01:46:31;16.13;;;5.40;;
76208;SDS011;64990;51.698;-0.292;2023-05-10T01:48:59;10.75;;;4.78;;
76208;SDS011;64990;51.698;-0.292;2023-05-10T01:51:29;13.32;;;5.15;;
76208;SDS011;64990;51.698;-0.292;2023-05-10T01:54:00;16.50;;;6.28;;
76208;SDS011;64990;51.698;-0.292;2023-05-10T01:56:28;20.13;;;6.10;;
76208;SDS011;64990;51.698;-0.292;2023-05-10T01:58:55;15.95;;;6.28;;
76208;SDS011;64990;51.698;-0.292;2023-05-10T02:01:22;37.15;;;7.53;;
76208;SDS011;64990;51.698;-0.292;2023-05-10T02:03:49;21.55;;;6.30;;
76208;SDS011;64990;51.698;-0.292;2023-05-10T02:06:16;8.77;;;4.22;;
76208;SDS011;64990;51.698;-0.292;2023-05-10T02:08:44;23.25;;;5.95;;
76208;SDS011;64990;51.698;-0.292;2023-05-10T02:11:12;14.85;;;5.28;;
76208;SDS011;64990;51.698;-0.292;2023-05-10T02:13:38;20.02;;;5.22;;
76208;SDS011;64990;51.698;-0.292;2023-05-10T02:16:05;21.58;;;6.47;;
76208;SDS011;64990;51.698;-0.292;2023-05-10T02:18:33;20.60;;;5.43;;
76208;SDS011;64990;51.698;-0.292;2023-05-10T02:20:59;16.88;;;6.45;;
76208;SDS011;64990;51.698;-0.292;2023-05-10T02:23:25;15.70;;;6.32;;
76208;SDS011;64990;51.698;-0.292;2023-05-10T02:25:52;16.25;;;5.15;;
76208;SDS011;64990;51.698;-0.292;2023-05-10T02:28:19;16.33;;;5.78;;
76208;SDS011;64990;51.698;-0.292;2023-05-10T02:30:47;19.73;;;6.30;;
76208;SDS011;64990;51.698;-0.292;2023-05-10T02:33:13;17.83;;;6.80;;
76208;SDS011;64990;51.698;-0.292;2023-05-10T02:35:40;23.85;;;7.13;;
76208;SDS011;64990;51.698;-0.292;2023-05-10T02:38:07;26.95;;;6.47;;
76208;SDS011;64990;51.698;-0.292;2023-05-10T02:40:33;19.38;;;6.20;;
76208;SDS011;64990;51.698;-0.292;2023-05-10T02:42:59;24.90;;;7.15;;
76208;SDS011;64990;51.698;-0.292;2023-05-10T02:45:27;23.23;;;7.30;;
76208;SDS011;64990;51.698;-0.292;2023-05-10T02:47:54;20.52;;;7.63;;
76208;SDS011;64990;51.698;-0.292;2023-05-10T02:50:21;21.05;;;8.02;;
76208;SDS011;64990;51.698;-0.292;2023-05-10T02:52:49;29.38;;;7.78;;
76208;SDS011;64990;51.698;-0.292;2023-05-10T02:55:20;28.63;;;6.65;;
76208;SDS011;64990;51.698;-0.292;2023-05-10T02:57:57;20.83;;;5.80;;
76208;SDS011;64990;51.698;-0.292;2023-05-10T03:00:24;18.85;;;7.18;;
76208;SDS011;64990;51.698;-0.292;2023-05-10T03:02:50;18.60;;;7.70;;
76208;SDS011;64990;51.698;-0.292;2023-05-10T03:05:16;17.85;;;5.53;;
76208;SDS011;64990;51.698;-0.292;2023-05-10T03:07:42;21.55;;;7.97;;
76208;SDS011;64990;51.698;-0.292;2023-05-10T03:10:09;18.90;;;6.68;;
76208;SDS011;64990;51.698;-0.292;2023-05-10T03:12:41;12.68;;;5.03;;
76208;SDS011;64990;51.698;-0.292;2023-05-10T03:15:19;18.02;;;5.40;;
76208;SDS011;64990;51.698;-0.292;2023-05-10T03:18:07;31.00;;;6.07;;
76208;SDS011;64990;51.698;-0.292;2023-05-10T03:23:43;21.50;;;6.40;;
76208;SDS011;64990;51.698;-0.292;2023-05-10T03:25:49;13.02;;;5.53;;
76208;SDS011;64990;51.698;-0.292;2023-05-10T03:28:16;21.25;;;6.65;;
76208;SDS011;64990;51.698;-0.292;2023-05-10T03:30:43;17.95;;;5.95;;
76208;SDS011;64990;51.698;-0.292;2023-05-10T03:33:09;17.95;;;6.60;;
76208;SDS011;64990;51.698;-0.292;2023-05-10T03:35:35;20.33;;;6.50;;
76208;SDS011;64990;51.698;-0.292;2023-05-10T03:38:01;19.85;;;5.28;;
76208;SDS011;64990;51.698;-0.292;2023-05-10T03:40:27;18.52;;;6.03;;
76208;SDS011;64990;51.698;-0.292;2023-05-10T03:42:56;17.60;;;5.15;;
76208;SDS011;64990;51.698;-0.292;2023-05-10T03:45:22;30.38;;;7.38;;
76208;SDS011;64990;51.698;-0.292;2023-05-10T03:47:48;17.75;;;5.07;;
76208;SDS011;64990;51.698;-0.292;2023-05-10T03:50:14;12.38;;;5.13;;
76208;SDS011;64990;51.698;-0.292;2023-05-10T03:52:40;26.00;;;5.38;;
76208;SDS011;64990;51.698;-0.292;2023-05-10T03:55:06;17.55;;;5.28;;
76208;SDS011;64990;51.698;-0.292;2023-05-10T03:57:33;11.50;;;5.38;;
76208;SDS011;64990;51.698;-0.292;2023-05-10T03:59:59;15.20;;;5.43;;
76208;SDS011;64990;51.698;-0.292;2023-05-10T04:02:25;26.17;;;8.80;;
76208;SDS011;64990;51.698;-0.292;2023-05-10T04:04:51;21.80;;;5.55;;
76208;SDS011;64990;51.698;-0.292;2023-05-10T04:07:17;59.40;;;7.53;;
76208;SDS011;64990;51.698;-0.292;2023-05-10T04:09:43;21.85;;;5.18;;
76208;SDS011;64990;51.698;-0.292;2023-05-10T04:12:09;13.35;;;4.93;;
76208;SDS011;64990;51.698;-0.292;2023-05-10T04:14:35;20.42;;;5.18;;
76208;SDS011;64990;51.698;-0.292;2023-05-10T04:17:02;23.77;;;5.43;;
76208;SDS011;64990;51.698;-0.292;2023-05-10T04:19:31;21.08;;;5.90;;
76208;SDS011;64990;51.698;-0.292;2023-05-10T04:21:58;20.40;;;5.50;;
76208;SDS011;64990;51.698;-0.292;2023-05-10T04:24:24;29.80;;;7.00;;
76208;SDS011;64990;51.698;-0.292;2023-05-10T04:26:50;18.98;;;5.95;;
76208;SDS011;64990;51.698;-0.292;2023-05-10T04:29:16;27.08;;;8.48;;
76208;SDS011;64990;51.698;-0.292;2023-05-10T04:31:42;10.93;;;4.47;;
76208;SDS011;64990;51.698;-0.292;2023-05-10T04:34:08;20.00;;;5.85;;
76208;SDS011;64990;51.698;-0.292;2023-05-10T04:36:34;23.45;;;5.63;;
76208;SDS011;64990;51.698;-0.292;2023-05-10T04:39:01;21.55;;;4.00;;
76208;SDS011;64990;51.698;-0.292;2023-05-10T04:41:28;31.30;;;6.22;;
76208;SDS011;64990;51.698;-0.292;2023-05-10T04:43:54;26.67;;;7.30;;
76208;SDS011;64990;51.698;-0.292;2023-05-10T04:46:20;16.85;;;4.57;;
76208;SDS011;64990;51.698;-0.292;2023-05-10T04:48:46;17.67;;;5.80;;
76208;SDS011;64990;51.698;-0.292;2023-05-10T04:51:12;21.38;;;5.32;;
76208;SDS011;64990;51.698;-0.292;2023-05-10T04:53:38;16.02;;;6.57;;
76208;SDS011;64990;51.698;-0.292;2023-05-10T04:56:04;13.45;;;5.50;;
76208;SDS011;64990;51.698;-0.292;2023-05-10T04:58:30;22.40;;;5.45;;
76208;SDS011;64990;51.698;-0.292;2023-05-10T05:00:56;19.83;;;5.55;;
76208;SDS011;64990;51.698;-0.292;2023-05-10T05:03:22;13.07;;;4.85;;
76208;SDS011;64990;51.698;-0.292;2023-05-10T05:05:48;26.55;;;5.93;;
76208;SDS011;64990;51.698;-0.292;2023-05-10T05:08:14;24.23;;;5.43;;
76208;SDS011;64990;51.698;-0.292;2023-05-10T05:10:40;23.15;;;6.25;;
76208;SDS011;64990;51.698;-0.292;2023-05-10T05:13:06;23.10;;;5.05;;
76208;SDS011;64990;51.698;-0.292;2023-05-10T05:15:32;15.93;;;4.65;;
76208;SDS011;64990;51.698;-0.292;2023-05-10T05:17:58;16.52;;;6.60;;
76208;SDS011;64990;51.698;-0.292;2023-05-10T05:20:25;31.80;;;7.53;;
76208;SDS011;64990;51.698;-0.292;2023-05-10T05:22:51;22.08;;;6.68;;
76208;SDS011;64990;51.698;-0.292;2023-05-10T05:25:17;13.43;;;5.63;;
76208;SDS011;64990;51.698;-0.292;2023-05-10T05:27:43;40.55;;;5.95;;
76208;SDS011;64990;51.698;-0.292;2023-05-10T05:30:09;14.30;;;6.35;;
76208;SDS011;64990;51.698;-0.292;2023-05-10T05:32:35;14.60;;;6.45;;
76208;SDS011;64990;51.698;-0.292;2023-05-10T05:35:01;24.42;;;7.35;;
76208;SDS011;64990;51.698;-0.292;2023-05-10T05:37:27;24.52;;;7.38;;
76208;SDS011;64990;51.698;-0.292;2023-05-10T05:39:53;20.17;;;6.68;;
76208;SDS011;64990;51.698;-0.292;2023-05-10T05:42:20;22.20;;;5.95;;
76208;SDS011;64990;51.698;-0.292;2023-05-10T05:44:46;30.80;;;8.05;;
76208;SDS011;64990;51.698;-0.292;2023-05-10T05:47:12;18.70;;;7.45;;
76208;SDS011;64990;51.698;-0.292;2023-05-10T05:49:38;19.33;;;7.97;;
76208;SDS011;64990;51.698;-0.292;2023-05-10T05:52:04;20.92;;;9.20;;
76208;SDS011;64990;51.698;-0.292;2023-05-10T05:54:31;14.57;;;6.43;;
76208;SDS011;64990;51.698;-0.292;2023-05-10T05:56:57;18.10;;;7.38;;
76208;SDS011;64990;51.698;-0.292;2023-05-10T05:59:23;19.42;;;8.20;;
76208;SDS011;64990;51.698;-0.292;2023-05-10T06:01:49;24.90;;;9.95;;
76208;SDS011;64990;51.698;-0.292;2023-05-10T06:04:16;23.05;;;8.43;;
76208;SDS011;64990;51.698;-0.292;2023-05-10T06:06:42;20.70;;;6.03;;
76208;SDS011;64990;51.698;-0.292;2023-05-10T06:09:08;15.35;;;6.18;;
76208;SDS011;64990;51.698;-0.292;2023-05-10T06:11:35;23.52;;;7.28;;
76208;SDS011;64990;51.698;-0.292;2023-05-10T06:14:03;19.70;;;5.72;;
76208;SDS011;64990;51.698;-0.292;2023-05-10T06:16:31;13.40;;;6.35;;
76208;SDS011;64990;51.698;-0.292;2023-05-10T06:18:57;12.23;;;6.43;;
76208;SDS011;64990;51.698;-0.292;2023-05-10T06:21:23;19.40;;;5.95;;
76208;SDS011;64990;51.698;-0.292;2023-05-10T06:23:50;25.10;;;8.05;;
76208;SDS011;64990;51.698;-0.292;2023-05-10T06:26:16;20.00;;;7.63;;
76208;SDS011;64990;51.698;-0.292;2023-05-10T06:28:42;21.90;;;7.53;;
76208;SDS011;64990;51.698;-0.292;2023-05-10T06:31:08;21.00;;;6.55;;
76208;SDS011;64990;51.698;-0.292;2023-05-10T06:33:36;17.77;;;5.85;;
76208;SDS011;64990;51.698;-0.292;2023-05-10T06:36:02;29.05;;;7.65;;
76208;SDS011;64990;51.698;-0.292;2023-05-10T06:38:28;15.88;;;4.95;;
76208;SDS011;64990;51.698;-0.292;2023-05-10T06:40:54;18.48;;;5.75;;
76208;SDS011;64990;51.698;-0.292;2023-05-10T06:43:20;13.40;;;5.93;;
76208;SDS011;64990;51.698;-0.292;2023-05-10T06:45:47;18.38;;;5.57;;
76208;SDS011;64990;51.698;-0.292;2023-05-10T06:48:13;13.77;;;6.10;;
76208;SDS011;64990;51.698;-0.292;2023-05-10T06:50:40;24.65;;;7.47;;
76208;SDS011;64990;51.698;-0.292;2023-05-10T06:53:06;29.23;;;6.10;;
76208;SDS011;64990;51.698;-0.292;2023-05-10T06:55:32;14.23;;;4.97;;
76208;SDS011;64990;51.698;-0.292;2023-05-10T06:57:58;16.38;;;5.35;;
76208;SDS011;64990;51.698;-0.292;2023-05-10T07:00:24;13.23;;;4.88;;
76208;SDS011;64990;51.698;-0.292;2023-05-10T07:02:50;10.00;;;4.32;;
76208;SDS011;64990;51.698;-0.292;2023-05-10T07:05:17;19.30;;;3.67;;
76208;SDS011;64990;51.698;-0.292;2023-05-10T07:07:43;41.72;;;7.15;;
76208;SDS011;64990;51.698;-0.292;2023-05-10T07:10:09;11.38;;;4.53;;
76208;SDS011;64990;51.698;-0.292;2023-05-10T07:12:35;12.63;;;5.22;;
76208;SDS011;64990;51.698;-0.292;2023-05-10T07:15:01;15.98;;;3.25;;
76208;SDS011;64990;51.698;-0.292;2023-05-10T07:17:27;10.13;;;3.05;;
76208;SDS011;64990;51.698;-0.292;2023-05-10T07:19:53;14.75;;;3.40;;
76208;SDS011;64990;51.698;-0.292;2023-05-10T07:22:20;11.18;;;4.00;;
76208;SDS011;64990;51.698;-0.292;2023-05-10T07:24:46;17.80;;;3.40;;
76208;SDS011;64990;51.698;-0.292;2023-05-10T07:27:12;12.88;;;4.38;;
76208;SDS011;64990;51.698;-0.292;2023-05-10T07:29:38;6.05;;;2.83;;
76208;SDS011;64990;51.698;-0.292;2023-05-10T07:32:04;11.88;;;3.75;;
76208;SDS011;64990;51.698;-0.292;2023-05-10T07:34:30;43.20;;;5.10;;
76208;SDS011;64990;51.698;-0.292;2023-05-10T07:37:00;11.38;;;3.47;;
76208;SDS011;64990;51.698;-0.292;2023-05-10T07:39:26;16.02;;;4.13;;
76208;SDS011;64990;51.698;-0.292;2023-05-10T07:41:53;13.57;;;3.60;;
76208;SDS011;64990;51.698;-0.292;2023-05-10T07:44:18;17.27;;;3.42;;
76208;SDS011;64990;51.698;-0.292;2023-05-10T07:46:45;20.50;;;5.00;;
76208;SDS011;64990;51.698;-0.292;2023-05-10T07:49:11;15.82;;;3.20;;
76208;SDS011;64990;51.698;-0.292;2023-05-10T07:51:37;9.05;;;4.25;;
76208;SDS011;64990;51.698;-0.292;2023-05-10T07:54:03;14.07;;;3.95;;
76208;SDS011;64990;51.698;-0.292;2023-05-10T07:56:30;7.55;;;2.85;;
76208;SDS011;64990;51.698;-0.292;2023-05-10T07:58:56;18.58;;;4.78;;
76208;SDS011;64990;51.698;-0.292;2023-05-10T08:01:23;18.58;;;3.63;;
76208;SDS011;64990;51.698;-0.292;2023-05-10T08:03:49;26.55;;;4.85;;
76208;SDS011;64990;51.698;-0.292;2023-05-10T08:06:17;19.67;;;4.25;;
76208;SDS011;64990;51.698;-0.292;2023-05-10T08:08:43;16.95;;;3.50;;
76208;SDS011;64990;51.698;-0.292;2023-05-10T08:11:10;11.43;;;2.83;;
76208;SDS011;64990;51.698;-0.292;2023-05-10T08:13:36;11.88;;;3.33;;
76208;SDS011;64990;51.698;-0.292;2023-05-10T08:16:02;14.98;;;4.28;;
76208;SDS011;64990;51.698;-0.292;2023-05-10T08:18:28;13.80;;;2.85;;
76208;SDS011;64990;51.698;-0.292;2023-05-10T08:20:54;10.20;;;3.55;;
76208;SDS011;64990;51.698;-0.292;2023-05-10T08:23:20;9.77;;;2.72;;
76208;SDS011;64990;51.698;-0.292;2023-05-10T08:25:46;9.85;;;3.33;;
76208;SDS011;64990;51.698;-0.292;2023-05-10T08:28:12;7.75;;;2.55;;
76208;SDS011;64990;51.698;-0.292;2023-05-10T08:30:38;6.22;;;3.10;;
76208;SDS011;64990;51.698;-0.292;2023-05-10T08:33:04;15.13;;;3.60;;
76208;SDS011;64990;51.698;-0.292;2023-05-10T08:35:30;11.10;;;3.50;;
76208;SDS011;64990;51.698;-0.292;2023-05-10T08:37:58;9.05;;;3.17;;
76208;SDS011;64990;51.698;-0.292;2023-05-10T08:40:24;11.10;;;2.47;;
76208;SDS011;64990;51.698;-0.292;2023-05-10T08:42:55;6.75;;;2.63;;
76208;SDS011;64990;51.698;-0.292;2023-05-10T08:45:22;18.65;;;3.55;;
76208;SDS011;64990;51.698;-0.292;2023-05-10T08:47:48;6.25;;;2.38;;
76208;SDS011;64990;51.698;-0.292;2023-05-10T08:50:16;7.20;;;2.45;;
76208;SDS011;64990;51.698;-0.292;2023-05-10T08:52:43;13.23;;;3.65;;
76208;SDS011;64990;51.698;-0.292;2023-05-10T08:55:11;13.48;;;3.80;;
76208;SDS011;64990;51.698;-0.292;2023-05-10T08:57:37;12.43;;;2.00;;
76208;SDS011;64990;51.698;-0.292;2023-05-10T09:00:03;7.05;;;2.47;;
76208;SDS011;64990;51.698;-0.292;2023-05-10T09:02:29;7.57;;;1.92;;
76208;SDS011;64990;51.698;-0.292;2023-05-10T09:04:55;12.32;;;3.42;;
76208;SDS011;64990;51.698;-0.292;2023-05-10T09:07:21;8.13;;;2.72;;
76208;SDS011;64990;51.698;-0.292;2023-05-10T09:09:47;8.75;;;3.55;;
76208;SDS011;64990;51.698;-0.292;2023-05-10T09:12:14;17.20;;;3.70;;
76208;SDS011;64990;51.698;-0.292;2023-05-10T09:14:41;15.55;;;2.72;;
76208;SDS011;64990;51.698;-0.292;2023-05-10T09:17:07;9.43;;;2.50;;
76208;SDS011;64990;51.698;-0.292;2023-05-10T09:19:33;4.13;;;1.73;;
76208;SDS011;64990;51.698;-0.292;2023-05-10T09:21:59;12.82;;;3.88;;
76208;SDS011;64990;51.698;-0.292;2023-05-10T09:24:28;10.70;;;2.50;;
76208;SDS011;64990;51.698;-0.292;2023-05-10T09:26:55;6.53;;;2.33;;
76208;SDS011;64990;51.698;-0.292;2023-05-10T09:29:23;10.43;;;2.20;;
76208;SDS011;64990;51.698;-0.292;2023-05-10T09:31:50;9.95;;;3.10;;
76208;SDS011;64990;51.698;-0.292;2023-05-10T09:34:17;6.10;;;2.90;;
76208;SDS011;64990;51.698;-0.292;2023-05-10T09:36:53;10.00;;;3.55;;
76208;SDS011;64990;51.698;-0.292;2023-05-10T09:39:20;10.20;;;4.90;;
76208;SDS011;64990;51.698;-0.292;2023-05-10T09:41:46;11.60;;;3.53;;
76208;SDS011;64990;51.698;-0.292;2023-05-10T09:44:16;8.40;;;2.10;;
76208;SDS011;64990;51.698;-0.292;2023-05-10T09:46:48;15.65;;;3.08;;
76208;SDS011;64990;51.698;-0.292;2023-05-10T09:49:15;11.77;;;2.25;;
76208;SDS011;64990;51.698;-0.292;2023-05-10T09:51:41;6.60;;;2.33;;
76208;SDS011;64990;51.698;-0.292;2023-05-10T09:56:36;9.10;;;2.85;;
76208;SDS011;64990;51.698;-0.292;2023-05-10T09:59:04;15.20;;;2.55;;
76208;SDS011;64990;51.698;-0.292;2023-05-10T10:01:30;6.20;;;2.55;;
76208;SDS011;64990;51.698;-0.292;2023-05-10T10:03:56;10.50;;;3.53;;
76208;SDS011;64990;51.698;-0.292;2023-05-10T10:06:23;5.80;;;2.85;;
76208;SDS011;64990;51.698;-0.292;2023-05-10T10:08:50;16.05;;;2.90;;
76208;SDS011;64990;51.698;-0.292;2023-05-10T10:11:16;12.55;;;4.18;;
76208;SDS011;64990;51.698;-0.292;2023-05-10T10:13:43;5.65;;;2.38;;
76208;SDS011;64990;51.698;-0.292;2023-05-10T10:16:09;10.63;;;3.45;;
76208;SDS011;64990;51.698;-0.292;2023-05-10T10:18:38;15.02;;;2.80;;
76208;SDS011;64990;51.698;-0.292;2023-05-10T10:21:07;10.45;;;3.03;;
76208;SDS011;64990;51.698;-0.292;2023-05-10T10:23:36;7.45;;;2.60;;
76208;SDS011;64990;51.698;-0.292;2023-05-10T10:26:03;10.00;;;2.40;;
76208;SDS011;64990;51.698;-0.292;2023-05-10T10:28:41;5.60;;;2.53;;
76208;SDS011;64990;51.698;-0.292;2023-05-10T10:31:26;13.23;;;3.88;;
76208;SDS011;64990;51.698;-0.292;2023-05-10T10:34:00;8.60;;;2.20;;
76208;SDS011;64990;51.698;-0.292;2023-05-10T10:36:27;13.63;;;2.35;;
76208;SDS011;64990;51.698;-0.292;2023-05-10T10:54:32;12.77;;;2.42;;
76208;SDS011;64990;51.698;-0.292;2023-05-10T10:57:13;5.07;;;2.22;;
76208;SDS011;64990;51.698;-0.292;2023-05-10T10:59:43;10.27;;;2.20;;
76208;SDS011;64990;51.698;-0.292;2023-05-10T11:02:09;12.00;;;2.65;;
76208;SDS011;64990;51.698;-0.292;2023-05-10T11:04:42;15.70;;;2.70;;
76208;SDS011;64990;51.698;-0.292;2023-05-10T11:07:18;12.35;;;2.67;;
76208;SDS011;64990;51.698;-0.292;2023-05-10T11:09:48;7.47;;;2.10;;
76208;SDS011;64990;51.698;-0.292;2023-05-10T11:12:14;14.73;;;3.00;;
76208;SDS011;64990;51.698;-0.292;2023-05-10T11:14:40;8.30;;;2.80;;
76208;SDS011;64990;51.698;-0.292;2023-05-10T11:17:26;8.27;;;2.78;;
76208;SDS011;64990;51.698;-0.292;2023-05-10T11:20:09;10.00;;;2.10;;
76208;SDS011;64990;51.698;-0.292;2023-05-10T11:22:51;7.30;;;2.75;;
76208;SDS011;64990;51.698;-0.292;2023-05-10T11:25:18;8.60;;;2.75;;
76208;SDS011;64990;51.698;-0.292;2023-05-10T11:27:44;6.53;;;2.22;;
76208;SDS011;64990;51.698;-0.292;2023-05-10T11:30:10;6.22;;;2.10;;
76208;SDS011;64990;51.698;-0.292;2023-05-10T11:32:40;17.55;;;3.80;;
76208;SDS011;64990;51.698;-0.292;2023-05-10T11:35:12;5.82;;;1.77;;
76208;SDS011;64990;51.698;-0.292;2023-05-10T11:37:38;7.93;;;2.00;;
76208;SDS011;64990;51.698;-0.292;2023-05-10T11:40:08;7.43;;;1.58;;
76208;SDS011;64990;51.698;-0.292;2023-05-10T11:42:37;3.17;;;2.10;;
76208;SDS011;64990;51.698;-0.292;2023-05-10T11:45:04;7.88;;;1.80;;
76208;SDS011;64990;51.698;-0.292;2023-05-10T11:47:30;9.43;;;1.70;;
76208;SDS011;64990;51.698;-0.292;2023-05-10T11:49:56;6.18;;;1.88;;
76208;SDS011;64990;51.698;-0.292;2023-05-10T11:52:22;7.22;;;2.08;;
76208;SDS011;64990;51.698;-0.292;2023-05-10T11:54:52;10.70;;;2.08;;
76208;SDS011;64990;51.698;-0.292;2023-05-10T11:57:18;5.57;;;1.60;;
76208;SDS011;64990;51.698;-0.292;2023-05-10T11:59:45;4.70;;;1.73;;
76208;SDS011;64990;51.698;-0.292;2023-05-10T12:02:13;9.85;;;2.90;;
76208;SDS011;64990;51.698;-0.292;2023-05-10T12:04:39;10.85;;;2.17;;
76208;SDS011;64990;51.698;-0.292;2023-05-10T12:07:05;10.30;;;2.38;;
76208;SDS011;64990;51.698;-0.292;2023-05-10T12:09:31;7.07;;;1.67;;
76208;SDS011;64990;51.698;-0.292;2023-05-10T12:11:57;7.05;;;2.30;;
76208;SDS011;64990;51.698;-0.292;2023-05-10T12:14:23;15.50;;;2.30;;
76208;SDS011;64990;51.698;-0.292;2023-05-10T12:16:49;3.95;;;1.83;;
76208;SDS011;64990;51.698;-0.292;2023-05-10T12:19:19;14.57;;;3.10;;
76208;SDS011;64990;51.698;-0.292;2023-05-10T12:21:46;13.40;;;2.20;;
76208;SDS011;64990;51.698;-0.292;2023-05-10T12:24:12;5.82;;;2.58;;
76208;SDS011;64990;51.698;-0.292;2023-05-10T12:26:41;4.88;;;2.45;;
76208;SDS011;64990;51.698;-0.292;2023-05-10T12:29:19;5.95;;;1.83;;
76208;SDS011;64990;51.698;-0.292;2023-05-10T12:31:52;15.45;;;3.00;;
76208;SDS011;64990;51.698;-0.292;2023-05-10T12:34:25;11.38;;;3.20;;
76208;SDS011;64990;51.698;-0.292;2023-05-10T12:36:52;6.05;;;2.60;;
76208;SDS011;64990;51.698;-0.292;2023-05-10T12:39:18;11.15;;;2.83;;
76208;SDS011;64990;51.698;-0.292;2023-05-10T12:41:44;21.00;;;2.45;;
76208;SDS011;64990;51.698;-0.292;2023-05-10T12:44:10;12.30;;;2.45;;
76208;SDS011;64990;51.698;-0.292;2023-05-10T12:46:36;6.93;;;2.08;;
76208;SDS011;64990;51.698;-0.292;2023-05-10T12:49:02;10.00;;;2.28;;
76208;SDS011;64990;51.698;-0.292;2023-05-10T12:51:28;5.28;;;1.20;;
76208;SDS011;64990;51.698;-0.292;2023-05-10T12:53:55;13.15;;;1.70;;
76208;SDS011;64990;51.698;-0.292;2023-05-10T12:56:21;9.18;;;2.53;;
76208;SDS011;64990;51.698;-0.292;2023-05-10T12:58:47;13.10;;;2.70;;
76208;SDS011;64990;51.698;-0.292;2023-05-10T13:01:14;5.95;;;2.35;;
76208;SDS011;64990;51.698;-0.292;2023-05-10T13:03:40;6.15;;;2.75;;
76208;SDS011;64990;51.698;-0.292;2023-05-10T13:06:06;11.23;;;2.67;;
76208;SDS011;64990;51.698;-0.292;2023-05-10T13:08:32;5.18;;;2.30;;
76208;SDS011;64990;51.698;-0.292;2023-05-10T13:11:01;3.13;;;1.80;;
76208;SDS011;64990;51.698;-0.292;2023-05-10T13:13:28;8.45;;;2.28;;
76208;SDS011;64990;51.698;-0.292;2023-05-10T13:15:54;7.43;;;2.55;;
76208;SDS011;64990;51.698;-0.292;2023-05-10T13:18:20;8.00;;;2.85;;
76208;SDS011;64990;51.698;-0.292;2023-05-10T13:20:46;6.32;;;2.53;;
76208;SDS011;64990;51.698;-0.292;2023-05-10T13:23:12;14.60;;;3.80;;
76208;SDS011;64990;51.698;-0.292;2023-05-10T13:25:38;17.25;;;4.05;;
76208;SDS011;64990;51.698;-0.292;2023-05-10T13:28:04;13.07;;;4.10;;
76208;SDS011;64990;51.698;-0.292;2023-05-10T13:30:30;10.93;;;3.17;;
76208;SDS011;64990;51.698;-0.292;2023-05-10T13:32:56;13.15;;;3.47;;
76208;SDS011;64990;51.698;-0.292;2023-05-10T13:35:22;5.57;;;2.40;;
76208;SDS011;64990;51.698;-0.292;2023-05-10T13:37:48;6.53;;;2.08;;
76208;SDS011;64990;51.698;-0.292;2023-05-10T13:40:14;9.02;;;1.85;;
76208;SDS011;64990;51.698;-0.292;2023-05-10T13:42:40;7.50;;;2.03;;
76208;SDS011;64990;51.698;-0.292;2023-05-10T13:45:06;10.75;;;1.85;;
76208;SDS011;64990;51.698;-0.292;2023-05-10T13:47:33;17.63;;;3.80;;
76208;SDS011;64990;51.698;-0.292;2023-05-10T13:49:59;5.65;;;1.83;;
76208;SDS011;64990;51.698;-0.292;2023-05-10T13:52:25;11.13;;;2.88;;
76208;SDS011;64990;51.698;-0.292;2023-05-10T13:54:51;8.52;;;2.78;;
76208;SDS011;64990;51.698;-0.292;2023-05-10T13:57:19;6.63;;;2.60;;
76208;SDS011;64990;51.698;-0.292;2023-05-10T13:59:46;6.25;;;2.30;;
76208;SDS011;64990;51.698;-0.292;2023-05-10T14:02:12;14.57;;;3.17;;
76208;SDS011;64990;51.698;-0.292;2023-05-10T14:04:38;13.27;;;3.08;;
76208;SDS011;64990;51.698;-0.292;2023-05-10T14:07:04;8.63;;;2.92;;
76208;SDS011;64990;51.698;-0.292;2023-05-10T14:09:30;7.35;;;2.10;;
76208;SDS011;64990;51.698;-0.292;2023-05-10T14:11:56;4.25;;;2.67;;
76208;SDS011;64990;51.698;-0.292;2023-05-10T14:14:22;11.25;;;3.35;;
76208;SDS011;64990;51.698;-0.292;2023-05-10T14:16:51;8.63;;;2.63;;
76208;SDS011;64990;51.698;-0.292;2023-05-10T14:19:17;4.72;;;2.67;;
76208;SDS011;64990;51.698;-0.292;2023-05-10T14:21:43;7.57;;;2.70;;
76208;SDS011;64990;51.698;-0.292;2023-05-10T14:24:09;8.13;;;3.33;;
76208;SDS011;64990;51.698;-0.292;2023-05-10T14:26:35;7.22;;;3.28;;
76208;SDS011;64990;51.698;-0.292;2023-05-10T14:29:01;8.85;;;2.92;;
76208;SDS011;64990;51.698;-0.292;2023-05-10T14:31:27;5.47;;;2.95;;
76208;SDS011;64990;51.698;-0.292;2023-05-10T14:33:55;8.32;;;3.90;;
76208;SDS011;64990;51.698;-0.292;2023-05-10T14:36:22;6.72;;;3.08;;
76208;SDS011;64990;51.698;-0.292;2023-05-10T14:38:48;4.93;;;2.67;;
76208;SDS011;64990;51.698;-0.292;2023-05-10T14:41:15;7.05;;;3.22;;
76208;SDS011;64990;51.698;-0.292;2023-05-10T14:43:42;9.43;;;2.83;;
76208;SDS011;64990;51.698;-0.292;2023-05-10T14:46:08;3.17;;;1.77;;
76208;SDS011;64990;51.698;-0.292;2023-05-10T14:48:34;5.75;;;3.15;;
76208;SDS011;64990;51.698;-0.292;2023-05-10T14:51:00;8.75;;;2.92;;
76208;SDS011;64990;51.698;-0.292;2023-05-10T14:53:26;5.43;;;2.72;;
76208;SDS011;64990;51.698;-0.292;2023-05-10T14:55:53;5.30;;;2.60;;
76208;SDS011;64990;51.698;-0.292;2023-05-10T14:58:19;3.67;;;1.80;;
76208;SDS011;64990;51.698;-0.292;2023-05-10T15:00:44;13.05;;;3.17;;
76208;SDS011;64990;51.698;-0.292;2023-05-10T15:03:11;5.63;;;2.58;;